< < Back
Terminal Aerodrome Forecast


Current Version              Previous Versions:   1  2  3  4  5  6  7  8  9  

Terminal Aerodrome Forecast

199
FTUS44 KHUN 230520
TAFHSV
TAF
KHSV 230520Z 2306/2406 01005KT P6SM SKC
      TEMPO 2310/2312 VRB03KT 5SM BR
     FM231400 04008KT P6SM FEW250=

Latest METAR

405
SAUS80 KWBC 231500
MTRHSV
METAR KHSV 231453Z 02009KT 10SM CLR 17/06 A3005 RMK AO2 SLP172 T01720056
51016


USA.gov is the U.S. government's official web portal to all federal, state and local government web resources and services.